sensor_id;sensor_type;location;lat;lon;timestamp;pressure;altitude;pressure_sealevel;temperature;humidity
54144;BME280;40050;47.324;18.792;2022-09-21T00:00:06;1007.21;;;12.37;70.46
54144;BME280;40050;47.324;18.792;2022-09-21T00:02:07;1007.21;;;12.36;70.42
54144;BME280;40050;47.324;18.792;2022-09-21T00:04:08;1007.24;;;12.35;70.42
54144;BME280;40050;47.324;18.792;2022-09-21T00:06:10;1007.19;;;12.31;70.32
54144;BME280;40050;47.324;18.792;2022-09-21T00:08:12;1007.20;;;12.30;70.39
54144;BME280;40050;47.324;18.792;2022-09-21T00:10:13;1007.20;;;12.28;70.42
54144;BME280;40050;47.324;18.792;2022-09-21T00:12:14;1007.17;;;12.23;70.57
54144;BME280;40050;47.324;18.792;2022-09-21T00:14:15;1007.18;;;12.22;70.53
54144;BME280;40050;47.324;18.792;2022-09-21T00:16:16;1006.82;;;11.99;70.58
54144;BME280;40050;47.324;18.792;2022-09-21T00:18:17;1007.14;;;12.19;70.56
54144;BME280;40050;47.324;18.792;2022-09-21T00:20:18;1007.11;;;12.15;70.49
54144;BME280;40050;47.324;18.792;2022-09-21T00:22:19;1007.13;;;12.15;70.44
54144;BME280;40050;47.324;18.792;2022-09-21T00:24:20;1007.14;;;12.13;70.38
54144;BME280;40050;47.324;18.792;2022-09-21T00:26:22;1007.16;;;12.11;70.38
54144;BME280;40050;47.324;18.792;2022-09-21T00:28:24;1007.18;;;12.09;70.25
54144;BME280;40050;47.324;18.792;2022-09-21T00:30:24;1007.21;;;12.10;70.06
54144;BME280;40050;47.324;18.792;2022-09-21T00:32:25;1007.17;;;12.04;70.18
54144;BME280;40050;47.324;18.792;2022-09-21T00:34:26;1007.18;;;12.03;70.21
54144;BME280;40050;47.324;18.792;2022-09-21T00:36:27;1007.15;;;12.01;70.31
54144;BME280;40050;47.324;18.792;2022-09-21T00:38:28;1007.14;;;12.00;70.32
54144;BME280;40050;47.324;18.792;2022-09-21T00:40:30;1007.12;;;11.95;70.34
54144;BME280;40050;47.324;18.792;2022-09-21T00:42:32;1007.13;;;11.95;70.39
54144;BME280;40050;47.324;18.792;2022-09-21T00:44:34;1007.14;;;11.94;70.31
54144;BME280;40050;47.324;18.792;2022-09-21T00:46:35;1007.12;;;11.88;70.38
54144;BME280;40050;47.324;18.792;2022-09-21T00:48:36;1007.21;;;11.86;70.36
54144;BME280;40050;47.324;18.792;2022-09-21T00:50:38;1007.20;;;11.84;70.39
54144;BME280;40050;47.324;18.792;2022-09-21T00:52:46;1007.21;;;11.82;70.54
54144;BME280;40050;47.324;18.792;2022-09-21T00:54:52;1007.23;;;11.86;70.19
54144;BME280;40050;47.324;18.792;2022-09-21T00:56:54;1007.25;;;11.75;70.38
54144;BME280;40050;47.324;18.792;2022-09-21T00:58:56;1007.31;;;11.71;70.58
54144;BME280;40050;47.324;18.792;2022-09-21T01:00:57;1007.31;;;11.70;70.56
54144;BME280;40050;47.324;18.792;2022-09-21T01:02:59;1007.30;;;11.69;70.44
54144;BME280;40050;47.324;18.792;2022-09-21T01:05:00;1007.33;;;11.66;70.58
54144;BME280;40050;47.324;18.792;2022-09-21T01:07:03;1007.30;;;11.67;70.56
54144;BME280;40050;47.324;18.792;2022-09-21T01:09:05;1007.34;;;11.67;70.55
54144;BME280;40050;47.324;18.792;2022-09-21T01:11:21;1007.37;;;11.69;70.48
54144;BME280;40050;47.324;18.792;2022-09-21T01:13:30;1007.40;;;11.73;70.35
54144;BME280;40050;47.324;18.792;2022-09-21T01:15:36;1007.42;;;11.75;70.13
54144;BME280;40050;47.324;18.792;2022-09-21T01:17:49;1007.43;;;11.78;69.94
54144;BME280;40050;47.324;18.792;2022-09-21T01:22:22;1007.37;;;11.67;69.81
54144;BME280;40050;47.324;18.792;2022-09-21T01:29:08;1007.34;;;11.59;69.75
54144;BME280;40050;47.324;18.792;2022-09-21T01:31:06;1007.31;;;11.61;69.70
54144;BME280;40050;47.324;18.792;2022-09-21T01:33:14;1007.35;;;11.62;69.52
54144;BME280;40050;47.324;18.792;2022-09-21T01:35:20;1007.35;;;11.60;69.64
54144;BME280;40050;47.324;18.792;2022-09-21T01:37:40;1007.34;;;11.58;69.60
54144;BME280;40050;47.324;18.792;2022-09-21T01:39:44;1007.38;;;11.52;69.63
54144;BME280;40050;47.324;18.792;2022-09-21T01:41:46;1007.41;;;11.49;69.67
54144;BME280;40050;47.324;18.792;2022-09-21T01:43:51;1007.38;;;11.43;69.51
54144;BME280;40050;47.324;18.792;2022-09-21T01:45:54;1007.45;;;11.44;69.44
54144;BME280;40050;47.324;18.792;2022-09-21T01:47:57;1007.47;;;11.41;69.55
54144;BME280;40050;47.324;18.792;2022-09-21T01:49:59;1007.48;;;11.38;69.48
54144;BME280;40050;47.324;18.792;2022-09-21T01:52:10;1007.34;;;11.30;69.37
54144;BME280;40050;47.324;18.792;2022-09-21T01:54:14;1007.47;;;11.34;69.45
54144;BME280;40050;47.324;18.792;2022-09-21T01:56:22;1007.51;;;11.33;69.55
54144;BME280;40050;47.324;18.792;2022-09-21T01:58:32;1007.45;;;11.26;69.64
54144;BME280;40050;47.324;18.792;2022-09-21T02:00:35;1007.48;;;11.27;69.80
54144;BME280;40050;47.324;18.792;2022-09-21T02:02:40;1007.25;;;11.13;69.77
54144;BME280;40050;47.324;18.792;2022-09-21T02:04:42;1007.47;;;11.23;69.93
54144;BME280;40050;47.324;18.792;2022-09-21T02:06:44;1007.48;;;11.22;69.95
54144;BME280;40050;47.324;18.792;2022-09-21T02:08:45;1007.44;;;11.21;70.00
54144;BME280;40050;47.324;18.792;2022-09-21T02:10:50;1007.49;;;11.22;70.07
54144;BME280;40050;47.324;18.792;2022-09-21T02:12:54;1007.42;;;11.16;70.12
54144;BME280;40050;47.324;18.792;2022-09-21T02:14:57;1007.46;;;11.16;70.24
54144;BME280;40050;47.324;18.792;2022-09-21T02:17:04;1007.55;;;11.21;70.25
54144;BME280;40050;47.324;18.792;2022-09-21T02:21:26;1007.58;;;11.20;70.37
54144;BME280;40050;47.324;18.792;2022-09-21T02:23:45;1007.58;;;11.20;70.29
54144;BME280;40050;47.324;18.792;2022-09-21T02:25:56;1007.63;;;11.19;70.46
54144;BME280;40050;47.324;18.792;2022-09-21T02:28:10;1007.65;;;11.15;70.56
54144;BME280;40050;47.324;18.792;2022-09-21T02:30:13;1007.68;;;11.12;70.87
54144;BME280;40050;47.324;18.792;2022-09-21T02:32:22;1007.72;;;11.16;70.98
54144;BME280;40050;47.324;18.792;2022-09-21T02:34:33;1007.70;;;11.17;71.07
54144;BME280;40050;47.324;18.792;2022-09-21T02:36:38;1007.65;;;11.20;71.16
54144;BME280;40050;47.324;18.792;2022-09-21T02:38:52;1007.65;;;11.28;71.11
54144;BME280;40050;47.324;18.792;2022-09-21T02:40:55;1007.68;;;11.27;71.26
54144;BME280;40050;47.324;18.792;2022-09-21T02:43:05;1007.74;;;11.26;71.54
54144;BME280;40050;47.324;18.792;2022-09-21T02:45:12;1007.72;;;11.28;71.67
54144;BME280;40050;47.324;18.792;2022-09-21T02:47:18;1007.76;;;11.28;71.80
54144;BME280;40050;47.324;18.792;2022-09-21T02:49:26;1007.77;;;11.27;71.86
54144;BME280;40050;47.324;18.792;2022-09-21T02:51:31;1007.71;;;11.22;72.04
54144;BME280;40050;47.324;18.792;2022-09-21T02:53:33;1007.74;;;11.22;72.08
54144;BME280;40050;47.324;18.792;2022-09-21T02:55:36;1007.77;;;11.25;72.39
54144;BME280;40050;47.324;18.792;2022-09-21T02:57:37;1007.73;;;11.27;72.31
54144;BME280;40050;47.324;18.792;2022-09-21T02:59:38;1007.39;;;11.09;72.37
54144;BME280;40050;47.324;18.792;2022-09-21T03:01:39;1007.76;;;11.31;72.29
54144;BME280;40050;47.324;18.792;2022-09-21T03:03:40;1007.74;;;11.30;72.20
54144;BME280;40050;47.324;18.792;2022-09-21T03:05:42;1007.74;;;11.32;72.09
54144;BME280;40050;47.324;18.792;2022-09-21T03:07:44;1007.71;;;11.33;72.24
54144;BME280;40050;47.324;18.792;2022-09-21T03:09:45;1007.72;;;11.34;72.20
54144;BME280;40050;47.324;18.792;2022-09-21T03:11:45;1007.77;;;11.33;72.12
54144;BME280;40050;47.324;18.792;2022-09-21T03:13:46;1007.83;;;11.31;72.09
54144;BME280;40050;47.324;18.792;2022-09-21T03:15:47;1007.84;;;11.31;72.16
54144;BME280;40050;47.324;18.792;2022-09-21T03:17:48;1007.82;;;11.33;72.11
54144;BME280;40050;47.324;18.792;2022-09-21T03:19:49;1007.82;;;11.33;71.77
54144;BME280;40050;47.324;18.792;2022-09-21T03:21:50;1007.87;;;11.33;71.94
54144;BME280;40050;47.324;18.792;2022-09-21T03:23:54;1007.87;;;11.32;72.06
54144;BME280;40050;47.324;18.792;2022-09-21T03:25:55;1007.82;;;11.29;72.09
54144;BME280;40050;47.324;18.792;2022-09-21T03:27:56;1007.83;;;11.29;72.18
54144;BME280;40050;47.324;18.792;2022-09-21T03:29:57;1007.87;;;11.30;72.18
54144;BME280;40050;47.324;18.792;2022-09-21T03:31:58;1007.90;;;11.29;72.34
54144;BME280;40050;47.324;18.792;2022-09-21T03:33:59;1007.90;;;11.30;72.54
54144;BME280;40050;47.324;18.792;2022-09-21T03:36:00;1007.90;;;11.30;72.62
54144;BME280;40050;47.324;18.792;2022-09-21T03:38:01;1007.93;;;11.33;72.46
54144;BME280;40050;47.324;18.792;2022-09-21T03:40:02;1007.88;;;11.30;72.65
54144;BME280;40050;47.324;18.792;2022-09-21T03:42:03;1007.95;;;11.33;72.82
54144;BME280;40050;47.324;18.792;2022-09-21T03:44:04;1007.95;;;11.34;72.91
54144;BME280;40050;47.324;18.792;2022-09-21T03:46:05;1007.95;;;11.34;73.00
54144;BME280;40050;47.324;18.792;2022-09-21T03:48:07;1007.96;;;11.35;72.96
54144;BME280;40050;47.324;18.792;2022-09-21T03:50:08;1008.00;;;11.37;72.89
54144;BME280;40050;47.324;18.792;2022-09-21T03:52:09;1008.02;;;11.37;72.83
54144;BME280;40050;47.324;18.792;2022-09-21T03:54:10;1008.00;;;11.35;72.73
54144;BME280;40050;47.324;18.792;2022-09-21T03:56:11;1008.05;;;11.35;72.73
54144;BME280;40050;47.324;18.792;2022-09-21T03:58:12;1008.07;;;11.39;72.66
54144;BME280;40050;47.324;18.792;2022-09-21T04:00:13;1008.06;;;11.39;72.56
54144;BME280;40050;47.324;18.792;2022-09-21T04:02:15;1008.11;;;11.40;72.56
54144;BME280;40050;47.324;18.792;2022-09-21T04:04:16;1008.12;;;11.40;72.51
54144;BME280;40050;47.324;18.792;2022-09-21T04:06:17;1008.13;;;11.40;72.43
54144;BME280;40050;47.324;18.792;2022-09-21T04:08:18;1008.02;;;11.33;72.37
54144;BME280;40050;47.324;18.792;2022-09-21T04:10:21;1008.14;;;11.41;72.22
54144;BME280;40050;47.324;18.792;2022-09-21T04:12:22;1008.13;;;11.38;72.19
54144;BME280;40050;47.324;18.792;2022-09-21T04:14:23;1008.12;;;11.37;72.21
54144;BME280;40050;47.324;18.792;2022-09-21T04:16:24;1008.09;;;11.35;72.15
54144;BME280;40050;47.324;18.792;2022-09-21T04:18:25;1008.13;;;11.35;72.11
54144;BME280;40050;47.324;18.792;2022-09-21T04:20:26;1008.16;;;11.35;72.11
54144;BME280;40050;47.324;18.792;2022-09-21T04:22:27;1008.12;;;11.34;72.02
54144;BME280;40050;47.324;18.792;2022-09-21T04:24:28;1008.20;;;11.34;72.11
54144;BME280;40050;47.324;18.792;2022-09-21T04:26:30;1008.22;;;11.35;72.10
54144;BME280;40050;47.324;18.792;2022-09-21T04:28:31;1008.24;;;11.35;72.08
54144;BME280;40050;47.324;18.792;2022-09-21T04:30:32;1008.22;;;11.33;71.85
54144;BME280;40050;47.324;18.792;2022-09-21T04:32:33;1008.26;;;11.32;71.89
54144;BME280;40050;47.324;18.792;2022-09-21T04:34:34;1008.30;;;11.35;71.94
54144;BME280;40050;47.324;18.792;2022-09-21T04:36:35;1008.35;;;11.33;71.90
54144;BME280;40050;47.324;18.792;2022-09-21T04:38:36;1008.39;;;11.33;71.89
54144;BME280;40050;47.324;18.792;2022-09-21T04:40:37;1008.40;;;11.34;71.74
54144;BME280;40050;47.324;18.792;2022-09-21T04:42:38;1008.14;;;11.17;71.78
54144;BME280;40050;47.324;18.792;2022-09-21T04:44:39;1008.38;;;11.31;71.95
54144;BME280;40050;47.324;18.792;2022-09-21T04:46:40;1008.42;;;11.33;71.99
54144;BME280;40050;47.324;18.792;2022-09-21T04:48:41;1008.44;;;11.33;71.95
54144;BME280;40050;47.324;18.792;2022-09-21T04:50:42;1008.43;;;11.34;72.16
54144;BME280;40050;47.324;18.792;2022-09-21T04:52:43;1008.40;;;11.35;72.13
54144;BME280;40050;47.324;18.792;2022-09-21T04:54:44;1008.39;;;11.35;72.11
54144;BME280;40050;47.324;18.792;2022-09-21T04:56:45;1008.40;;;11.37;72.09
54144;BME280;40050;47.324;18.792;2022-09-21T04:58:46;1008.40;;;11.38;72.13
54144;BME280;40050;47.324;18.792;2022-09-21T05:00:48;1008.43;;;11.40;72.20
54144;BME280;40050;47.324;18.792;2022-09-21T05:02:49;1008.46;;;11.44;71.96
54144;BME280;40050;47.324;18.792;2022-09-21T05:04:50;1008.50;;;11.42;72.05
54144;BME280;40050;47.324;18.792;2022-09-21T05:06:51;1008.50;;;11.43;72.27
54144;BME280;40050;47.324;18.792;2022-09-21T05:08:52;1008.48;;;11.44;72.19
54144;BME280;40050;47.324;18.792;2022-09-21T05:10:53;1008.47;;;11.43;72.25
54144;BME280;40050;47.324;18.792;2022-09-21T05:12:54;1008.52;;;11.45;72.43
54144;BME280;40050;47.324;18.792;2022-09-21T05:14:54;1008.49;;;11.43;72.59
54144;BME280;40050;47.324;18.792;2022-09-21T05:16:55;1008.54;;;11.50;72.66
54144;BME280;40050;47.324;18.792;2022-09-21T05:18:56;1008.31;;;11.34;72.65
54144;BME280;40050;47.324;18.792;2022-09-21T05:20:58;1008.61;;;11.52;72.59
54144;BME280;40050;47.324;18.792;2022-09-21T05:22:59;1008.62;;;11.56;72.48
54144;BME280;40050;47.324;18.792;2022-09-21T05:25:01;1008.54;;;11.53;72.45
54144;BME280;40050;47.324;18.792;2022-09-21T05:27:01;1008.59;;;11.58;72.17
54144;BME280;40050;47.324;18.792;2022-09-21T05:29:03;1008.66;;;11.62;72.67
54144;BME280;40050;47.324;18.792;2022-09-21T05:31:21;1008.65;;;11.66;72.75
54144;BME280;40050;47.324;18.792;2022-09-21T05:33:22;1008.65;;;11.68;72.68
54144;BME280;40050;47.324;18.792;2022-09-21T05:35:43;1008.65;;;11.69;72.43
54144;BME280;40050;47.324;18.792;2022-09-21T05:40:11;1008.69;;;11.64;73.14
54144;BME280;40050;47.324;18.792;2022-09-21T05:42:13;1008.38;;;11.50;73.06
54144;BME280;40050;47.324;18.792;2022-09-21T05:44:14;1008.71;;;11.73;72.83
54144;BME280;40050;47.324;18.792;2022-09-21T05:48:39;1008.79;;;11.76;73.07
54144;BME280;40050;47.324;18.792;2022-09-21T05:55:23;1008.79;;;11.86;72.74
54144;BME280;40050;47.324;18.792;2022-09-21T05:59:47;1008.77;;;11.94;72.56
54144;BME280;40050;47.324;18.792;2022-09-21T06:04:15;1008.86;;;12.07;72.46
54144;BME280;40050;47.324;18.792;2022-09-21T06:06:16;1008.86;;;12.12;72.46
54144;BME280;40050;47.324;18.792;2022-09-21T06:08:18;1008.84;;;12.15;72.54
54144;BME280;40050;47.324;18.792;2022-09-21T06:10:19;1008.94;;;12.23;72.86
54144;BME280;40050;47.324;18.792;2022-09-21T06:12:19;1008.92;;;12.32;72.88
54144;BME280;40050;47.324;18.792;2022-09-21T06:14:20;1008.97;;;12.39;72.77
54144;BME280;40050;47.324;18.792;2022-09-21T06:16:21;1009.04;;;12.44;72.50
54144;BME280;40050;47.324;18.792;2022-09-21T06:18:22;1009.01;;;12.43;72.32
54144;BME280;40050;47.324;18.792;2022-09-21T06:20:24;1008.97;;;12.44;72.11
54144;BME280;40050;47.324;18.792;2022-09-21T06:22:25;1008.93;;;12.41;72.11
54144;BME280;40050;47.324;18.792;2022-09-21T06:24:25;1009.02;;;12.49;71.92
54144;BME280;40050;47.324;18.792;2022-09-21T06:26:26;1009.05;;;12.52;71.92
54144;BME280;40050;47.324;18.792;2022-09-21T06:28:27;1009.01;;;12.56;71.68
54144;BME280;40050;47.324;18.792;2022-09-21T06:30:29;1009.04;;;12.53;71.60
54144;BME280;40050;47.324;18.792;2022-09-21T06:32:30;1009.05;;;12.59;71.44
54144;BME280;40050;47.324;18.792;2022-09-21T06:34:31;1009.02;;;12.52;71.46
54144;BME280;40050;47.324;18.792;2022-09-21T06:36:31;1009.02;;;12.57;71.52
54144;BME280;40050;47.324;18.792;2022-09-21T06:38:32;1009.11;;;12.65;71.85
54144;BME280;40050;47.324;18.792;2022-09-21T06:40:34;1009.06;;;12.76;71.95
54144;BME280;40050;47.324;18.792;2022-09-21T06:42:35;1009.02;;;12.86;72.03
54144;BME280;40050;47.324;18.792;2022-09-21T06:44:36;1009.10;;;13.02;71.51
54144;BME280;40050;47.324;18.792;2022-09-21T06:46:37;1009.12;;;13.14;71.44
54144;BME280;40050;47.324;18.792;2022-09-21T06:48:38;1009.09;;;13.27;71.79
54144;BME280;40050;47.324;18.792;2022-09-21T06:50:39;1009.11;;;13.40;71.65
54144;BME280;40050;47.324;18.792;2022-09-21T06:52:40;1009.09;;;13.56;71.38
54144;BME280;40050;47.324;18.792;2022-09-21T06:54:41;1009.09;;;13.71;71.65
54144;BME280;40050;47.324;18.792;2022-09-21T06:56:42;1009.10;;;13.90;70.89
54144;BME280;40050;47.324;18.792;2022-09-21T06:58:42;1009.14;;;14.05;69.63
54144;BME280;40050;47.324;18.792;2022-09-21T07:00:43;1009.12;;;14.15;69.40
54144;BME280;40050;47.324;18.792;2022-09-21T07:02:44;1009.10;;;14.23;68.48
54144;BME280;40050;47.324;18.792;2022-09-21T07:04:45;1009.08;;;14.38;68.59
54144;BME280;40050;47.324;18.792;2022-09-21T07:06:46;1009.09;;;14.51;67.08
54144;BME280;40050;47.324;18.792;2022-09-21T07:08:47;1009.14;;;14.61;67.45
54144;BME280;40050;47.324;18.792;2022-09-21T07:10:48;1009.12;;;14.74;67.60
54144;BME280;40050;47.324;18.792;2022-09-21T07:12:49;1009.13;;;14.85;66.59
54144;BME280;40050;47.324;18.792;2022-09-21T07:14:50;1009.07;;;14.94;66.75
54144;BME280;40050;47.324;18.792;2022-09-21T07:16:51;1009.13;;;15.02;66.15
54144;BME280;40050;47.324;18.792;2022-09-21T07:18:52;1009.15;;;15.16;66.13
54144;BME280;40050;47.324;18.792;2022-09-21T07:20:53;1009.10;;;15.26;65.34
54144;BME280;40050;47.324;18.792;2022-09-21T07:22:54;1009.06;;;15.33;65.00
54144;BME280;40050;47.324;18.792;2022-09-21T07:24:55;1009.09;;;15.50;64.79
54144;BME280;40050;47.324;18.792;2022-09-21T07:26:56;1009.12;;;15.61;63.98
54144;BME280;40050;47.324;18.792;2022-09-21T07:28:57;1009.10;;;15.66;64.70
54144;BME280;40050;47.324;18.792;2022-09-21T07:30:58;1009.12;;;15.79;64.64
54144;BME280;40050;47.324;18.792;2022-09-21T07:33:05;1009.13;;;15.94;64.12
54144;BME280;40050;47.324;18.792;2022-09-21T07:35:06;1008.76;;;15.85;63.13
54144;BME280;40050;47.324;18.792;2022-09-21T07:37:07;1009.12;;;16.19;63.13
54144;BME280;40050;47.324;18.792;2022-09-21T07:39:08;1009.13;;;16.31;62.83
54144;BME280;40050;47.324;18.792;2022-09-21T07:41:10;1009.20;;;16.48;62.90
54144;BME280;40050;47.324;18.792;2022-09-21T07:43:12;1009.19;;;16.64;62.81
54144;BME280;40050;47.324;18.792;2022-09-21T07:45:13;1009.23;;;16.77;62.33
54144;BME280;40050;47.324;18.792;2022-09-21T07:47:14;1009.21;;;16.89;62.05
54144;BME280;40050;47.324;18.792;2022-09-21T07:49:15;1009.24;;;17.02;60.74
54144;BME280;40050;47.324;18.792;2022-09-21T07:51:16;1009.21;;;17.16;61.41
54144;BME280;40050;47.324;18.792;2022-09-21T07:53:17;1009.18;;;17.27;61.05
54144;BME280;40050;47.324;18.792;2022-09-21T07:55:18;1009.15;;;17.29;60.76
54144;BME280;40050;47.324;18.792;2022-09-21T07:57:19;1009.15;;;17.42;60.34
54144;BME280;40050;47.324;18.792;2022-09-21T07:59:20;1009.17;;;17.53;59.68
54144;BME280;40050;47.324;18.792;2022-09-21T08:01:21;1009.13;;;17.65;60.01
54144;BME280;40050;47.324;18.792;2022-09-21T08:03:22;1009.18;;;17.81;59.82
54144;BME280;40050;47.324;18.792;2022-09-21T08:05:23;1009.12;;;17.93;59.18
54144;BME280;40050;47.324;18.792;2022-09-21T08:07:24;1009.16;;;18.09;58.71
54144;BME280;40050;47.324;18.792;2022-09-21T08:09:24;1009.14;;;18.17;58.01
54144;BME280;40050;47.324;18.792;2022-09-21T08:11:26;1009.12;;;18.28;58.42
54144;BME280;40050;47.324;18.792;2022-09-21T08:13:27;1009.14;;;18.41;58.23
54144;BME280;40050;47.324;18.792;2022-09-21T08:15:28;1009.17;;;18.47;57.32
54144;BME280;40050;47.324;18.792;2022-09-21T08:17:29;1009.19;;;18.55;57.18
54144;BME280;40050;47.324;18.792;2022-09-21T08:19:30;1009.13;;;18.54;56.39
54144;BME280;40050;47.324;18.792;2022-09-21T08:21:31;1009.15;;;18.57;55.93
54144;BME280;40050;47.324;18.792;2022-09-21T08:23:31;1009.16;;;18.62;57.00
54144;BME280;40050;47.324;18.792;2022-09-21T08:25:32;1009.15;;;18.77;56.77
54144;BME280;40050;47.324;18.792;2022-09-21T08:27:33;1009.18;;;18.87;56.88
54144;BME280;40050;47.324;18.792;2022-09-21T08:29:34;1009.15;;;18.99;56.73
54144;BME280;40050;47.324;18.792;2022-09-21T08:31:35;1009.14;;;19.11;56.32
54144;BME280;40050;47.324;18.792;2022-09-21T08:33:36;1009.14;;;19.27;55.37
54144;BME280;40050;47.324;18.792;2022-09-21T08:35:37;1009.11;;;19.35;54.83
54144;BME280;40050;47.324;18.792;2022-09-21T08:37:38;1009.10;;;19.40;55.17
54144;BME280;40050;47.324;18.792;2022-09-21T08:39:39;1009.10;;;19.49;54.38
54144;BME280;40050;47.324;18.792;2022-09-21T08:44:17;1009.10;;;19.76;53.48
54144;BME280;40050;47.324;18.792;2022-09-21T08:46:11;1009.17;;;19.85;52.77
54144;BME280;40050;47.324;18.792;2022-09-21T08:48:22;1009.18;;;19.96;53.71
54144;BME280;40050;47.324;18.792;2022-09-21T08:50:32;1009.21;;;20.15;52.83
54144;BME280;40050;47.324;18.792;2022-09-21T08:52:35;1009.23;;;20.29;52.84
54144;BME280;40050;47.324;18.792;2022-09-21T08:54:47;1009.20;;;20.40;52.41
54144;BME280;40050;47.324;18.792;2022-09-21T08:56:49;1009.21;;;20.51;51.98
54144;BME280;40050;47.324;18.792;2022-09-21T08:58:50;1009.26;;;20.65;51.61
54144;BME280;40050;47.324;18.792;2022-09-21T09:03:15;1009.25;;;20.63;50.78
54144;BME280;40050;47.324;18.792;2022-09-21T09:05:38;1009.31;;;20.56;50.72
54144;BME280;40050;47.324;18.792;2022-09-21T09:07:49;1009.17;;;20.40;51.56
54144;BME280;40050;47.324;18.792;2022-09-21T09:10:58;1009.33;;;20.38;51.54
54144;BME280;40050;47.324;18.792;2022-09-21T09:14:53;1009.32;;;20.36;51.01
54144;BME280;40050;47.324;18.792;2022-09-21T09:21:36;1009.25;;;20.70;52.04
54144;BME280;40050;47.324;18.792;2022-09-21T09:23:40;1009.20;;;20.83;49.86
54144;BME280;40050;47.324;18.792;2022-09-21T09:25:46;1009.19;;;20.92;49.64
54144;BME280;40050;47.324;18.792;2022-09-21T09:27:51;1009.20;;;21.02;49.59
54144;BME280;40050;47.324;18.792;2022-09-21T09:30:09;1009.10;;;21.10;49.90
54144;BME280;40050;47.324;18.792;2022-09-21T09:32:13;1009.12;;;21.17;49.84
54144;BME280;40050;47.324;18.792;2022-09-21T09:34:23;1009.15;;;21.28;49.34
54144;BME280;40050;47.324;18.792;2022-09-21T09:36:26;1009.13;;;21.29;49.34
54144;BME280;40050;47.324;18.792;2022-09-21T09:38:38;1009.06;;;21.32;48.49
54144;BME280;40050;47.324;18.792;2022-09-21T09:40:52;1009.08;;;21.37;48.13
54144;BME280;40050;47.324;18.792;2022-09-21T09:43:03;1009.03;;;21.39;48.06
54144;BME280;40050;47.324;18.792;2022-09-21T09:45:13;1009.10;;;21.49;48.42
54144;BME280;40050;47.324;18.792;2022-09-21T09:47:26;1009.07;;;21.64;48.29
54144;BME280;40050;47.324;18.792;2022-09-21T09:51:56;1009.04;;;21.62;49.30
54144;BME280;40050;47.324;18.792;2022-09-21T09:53:58;1009.04;;;21.61;47.44
54144;BME280;40050;47.324;18.792;2022-09-21T09:55:59;1009.06;;;21.54;47.69
54144;BME280;40050;47.324;18.792;2022-09-21T09:58:00;1009.08;;;21.41;48.50
54144;BME280;40050;47.324;18.792;2022-09-21T10:00:03;1009.08;;;21.49;47.91
54144;BME280;40050;47.324;18.792;2022-09-21T10:02:20;1009.08;;;21.55;46.85
54144;BME280;40050;47.324;18.792;2022-09-21T10:04:22;1009.10;;;21.54;46.55
54144;BME280;40050;47.324;18.792;2022-09-21T10:06:31;1008.98;;;21.53;46.49
54144;BME280;40050;47.324;18.792;2022-09-21T10:10:49;1009.00;;;21.48;45.47
54144;BME280;40050;47.324;18.792;2022-09-21T10:12:50;1009.07;;;21.53;46.81
54144;BME280;40050;47.324;18.792;2022-09-21T10:14:51;1008.97;;;21.48;46.31
54144;BME280;40050;47.324;18.792;2022-09-21T10:16:53;1008.96;;;21.56;46.76
54144;BME280;40050;47.324;18.792;2022-09-21T10:18:56;1008.92;;;21.61;46.17
54144;BME280;40050;47.324;18.792;2022-09-21T10:23:23;1008.89;;;21.73;47.58
54144;BME280;40050;47.324;18.792;2022-09-21T10:25:25;1008.94;;;21.70;46.14
54144;BME280;40050;47.324;18.792;2022-09-21T10:27:26;1008.97;;;21.54;46.69
54144;BME280;40050;47.324;18.792;2022-09-21T10:29:29;1008.95;;;21.42;47.49
54144;BME280;40050;47.324;18.792;2022-09-21T10:31:31;1008.95;;;21.32;46.63
54144;BME280;40050;47.324;18.792;2022-09-21T10:33:31;1008.96;;;21.26;45.91
54144;BME280;40050;47.324;18.792;2022-09-21T10:35:33;1008.96;;;21.23;46.64
54144;BME280;40050;47.324;18.792;2022-09-21T10:37:46;1008.93;;;21.25;47.60
54144;BME280;40050;47.324;18.792;2022-09-21T10:39:46;1008.93;;;21.27;46.46
54144;BME280;40050;47.324;18.792;2022-09-21T10:41:57;1008.89;;;21.30;47.11
54144;BME280;40050;47.324;18.792;2022-09-21T10:43:59;1008.89;;;21.32;46.25
54144;BME280;40050;47.324;18.792;2022-09-21T10:46:00;1008.82;;;21.30;47.42
54144;BME280;40050;47.324;18.792;2022-09-21T10:50:24;1008.94;;;21.21;46.71
54144;BME280;40050;47.324;18.792;2022-09-21T10:53:00;1008.91;;;21.21;46.91
54144;BME280;40050;47.324;18.792;2022-09-21T10:54:46;1008.90;;;21.28;46.71
54144;BME280;40050;47.324;18.792;2022-09-21T10:56:49;1008.81;;;21.23;46.29
54144;BME280;40050;47.324;18.792;2022-09-21T10:59:19;1008.86;;;21.33;47.15
54144;BME280;40050;47.324;18.792;2022-09-21T11:01:22;1008.87;;;21.34;46.72
54144;BME280;40050;47.324;18.792;2022-09-21T11:03:27;1008.83;;;21.25;47.52
54144;BME280;40050;47.324;18.792;2022-09-21T11:05:35;1008.87;;;21.23;47.16
54144;BME280;40050;47.324;18.792;2022-09-21T11:07:51;1008.79;;;21.24;45.97
54144;BME280;40050;47.324;18.792;2022-09-21T11:12:21;1008.82;;;21.27;46.17
54144;BME280;40050;47.324;18.792;2022-09-21T11:14:34;1008.60;;;21.20;45.61
54144;BME280;40050;47.324;18.792;2022-09-21T11:16:59;1008.77;;;21.24;46.00
54144;BME280;40050;47.324;18.792;2022-09-21T11:19:08;1008.76;;;21.19;46.27
54144;BME280;40050;47.324;18.792;2022-09-21T11:25:41;1008.72;;;21.12;46.87
54144;BME280;40050;47.324;18.792;2022-09-21T11:27:44;1008.70;;;21.09;45.78
54144;BME280;40050;47.324;18.792;2022-09-21T11:34:38;1008.68;;;21.10;46.80
54144;BME280;40050;47.324;18.792;2022-09-21T11:41:44;1008.61;;;21.02;46.30
54144;BME280;40050;47.324;18.792;2022-09-21T11:43:55;1008.51;;;20.98;46.65
54144;BME280;40050;47.324;18.792;2022-09-21T11:46:17;1008.52;;;21.13;46.62
54144;BME280;40050;47.324;18.792;2022-09-21T11:48:29;1008.49;;;21.20;46.29
54144;BME280;40050;47.324;18.792;2022-09-21T11:57:50;1008.40;;;21.58;46.01
54144;BME280;40050;47.324;18.792;2022-09-21T11:59:58;1008.33;;;21.66;45.71
54144;BME280;40050;47.324;18.792;2022-09-21T12:04:33;1008.38;;;21.81;45.23